• Join FlightAware (Why Join?)
  • Login
  • US Flag 
01:31PM EDT


 

Airport Tracker/Info


-or-


 

Live Flight TrackerFlight Track Log ✈ EJA929 ✈ 21-Jul-2013 ✈ KTEB - KPVD

Flight Track Log - Related Links

Times and Time Zones

All times are in EDT time to prevent confusion due to time zone crossing. See the EJA929 flight status page for this flight to view local times or setup timezone preferences in your user account.

Time Position Orientation Groundspeed Altitude Reporting Facility
EDT Latitude Longitude Course Direction KTS MPH feet Rate Location/Type
11:31PM 40.8333 -74.1167 255° West 201 231 1,600  Level New York TRACON
11:32PM 40.8167 -74.2000 255° West 226 260 2,800 1,800 Climbing New York TRACON
11:34PM 40.9297 -74.2067 357° North 186 214 8,200 2,460 Climbing Boston Center
11:35PM 40.9750 -74.1144 57° Northeast 238 274 11,300 2,400 Climbing Boston Center
11:36PM 41.0039 -73.9942 72° East 286 329 13,000 840 Climbing Boston Center
11:37PM 41.0453 -73.8547 68° East 363 418 13,000  Level Boston Center
11:38PM 41.0889 -73.6986 70° East 439 505 13,000  Level Boston Center
11:40PM 41.1319 -73.5425 70° East 453 521 13,000  Level Boston Center
11:41PM 41.1839 -73.3531 70° East 453 521 13,000 -60 Level Boston Center
11:42PM 41.2308 -73.1908 69° East 453 521 12,900  Descending Boston Center
11:43PM 41.2733 -73.0367 70° East 453 521 13,000  Climbing Boston Center
11:44PM 41.3450 -72.9044 54° Northeast 439 505 13,000  Level Boston Center
11:45PM 41.3831 -72.7500 72° East 439 505 13,000  Level Boston Center
11:46PM 41.3728 -72.5839 95° East 434 499 13,000 -480 Level Boston Center
11:47PM 41.3606 -72.4236 96° East 446 513 12,100 -1,020 Descending Boston Center
11:48PM 41.3500 -72.2769 95° East 441 507 11,000 -540 Descending Boston Center
11:49PM 41.3872 -72.1247 72° East 356 410 11,000 -600 Level Boston Center
11:50PM 41.4306 -72.0386 56° Northeast 348 400 9,900 -1,500 Descending Boston Center
11:51PM 41.4822 -71.9358 56° Northeast 312 359 8,100 -1,740 Descending Boston Center
11:52PM 41.5194 -71.8550 58° Northeast 288 331 6,500 -1,080 Descending Boston Center
11:53PM 41.5689 -71.7631 54° Northeast 277 319 6,000 -300 Descending Boston Center
11:54PM 41.6269 -71.6986 40° Northeast 271 312 6,000  Level Boston Center
11:55PM 41.6744 -71.6397 43° Northeast 234 269 6,000  Level Boston Center
11:56PM 41.7242 -71.5889 37° Northeast 231 266 6,100  Climbing Boston Center
11:57PM 41.7736 -71.5269 43° Northeast 234 269 6,000 -60 Descending Boston Center
11:58PM 41.8211 -71.4733 40° Northeast 232 267 6,000 -300 Level Boston Center
11:59PM 41.8747 -71.4114 41° Northeast 409 471 5,400 -540 Descending Boston Center
12:00AM 41.9222 -71.3575 40° Northeast 251 289 5,000 -420 Descending Boston Center